createdAt,value
2018-01-15T00:06:01.779Z,17
2018-01-15T00:16:01.841Z,21
2018-01-15T00:26:01.825Z,20
2018-01-15T00:36:01.922Z,19
2018-01-15T00:46:01.853Z,19
2018-01-15T00:56:01.941Z,22
2018-01-15T01:06:01.909Z,19
2018-01-15T01:16:01.913Z,21
2018-01-15T01:26:01.951Z,22
2018-01-15T01:36:01.832Z,24
2018-01-15T01:46:01.884Z,24
2018-01-15T01:56:01.857Z,23
2018-01-15T02:06:01.947Z,19
2018-01-15T02:16:01.978Z,18
2018-01-15T02:26:01.988Z,20
2018-01-15T02:36:01.935Z,21
2018-01-15T02:46:02.010Z,23
2018-01-15T02:56:01.928Z,19
2018-01-15T03:06:01.889Z,19
2018-01-15T03:16:01.966Z,23
2018-01-15T03:26:01.868Z,19
2018-01-15T03:36:01.966Z,22
2018-01-15T03:46:02.001Z,21
2018-01-15T03:56:02.030Z,19
2018-01-15T04:06:01.979Z,19
2018-01-15T04:16:02.028Z,21
2018-01-15T04:26:02.043Z,19
2018-01-15T04:36:02.082Z,20
2018-01-15T04:46:02.015Z,16
2018-01-15T04:56:01.995Z,21
2018-01-15T05:06:02.056Z,19
2018-01-15T05:16:02.115Z,18
2018-01-15T05:26:02.153Z,21
2018-01-15T05:36:02.147Z,21
2018-01-15T05:46:02.070Z,20
2018-01-15T05:56:02.100Z,22
2018-01-15T06:06:02.131Z,20
2018-01-15T06:16:02.071Z,22
2018-01-15T06:26:02.034Z,21
2018-01-15T06:36:02.096Z,21
2018-01-15T06:46:02.120Z,23
2018-01-15T06:56:02.185Z,17
2018-01-15T07:06:02.105Z,18
2018-01-15T07:16:02.257Z,18
2018-01-15T07:26:02.152Z,17
2018-01-15T07:36:02.592Z,20
2018-01-15T07:46:02.285Z,21
2018-01-15T07:56:02.259Z,22
2018-01-15T08:06:02.162Z,19
2018-01-15T08:16:02.230Z,18
2018-01-15T08:26:02.207Z,19
2018-01-15T08:36:02.857Z,18
2018-01-15T08:46:02.339Z,17
2018-01-15T08:56:02.276Z,17
2018-01-15T09:06:02.305Z,17
2018-01-15T09:16:02.285Z,21
2018-01-15T09:26:02.351Z,18
2018-01-15T09:36:02.198Z,17
2018-01-15T09:46:02.342Z,17
2018-01-15T09:56:02.275Z,15
2018-01-15T10:06:02.319Z,16
2018-01-15T10:16:02.306Z,16
2018-01-15T10:26:02.280Z,15
2018-01-15T10:36:02.295Z,13
2018-01-15T10:46:02.352Z,15
2018-01-15T10:56:02.817Z,17
2018-01-15T11:06:02.329Z,15
2018-01-15T11:16:02.559Z,15
2018-01-15T11:26:02.545Z,13
2018-01-15T11:36:03.151Z,13
2018-01-15T11:46:02.377Z,11
2018-01-15T11:56:02.339Z,12
2018-01-15T12:06:02.293Z,12
2018-01-15T12:16:02.364Z,14
2018-01-15T12:26:02.368Z,10
2018-01-15T12:36:02.553Z,12
2018-01-15T12:46:02.346Z,11
2018-01-15T12:56:02.475Z,11
2018-01-15T13:06:02.431Z,10
2018-01-15T13:16:02.476Z,8
2018-01-15T13:26:02.423Z,11
2018-01-15T13:36:02.491Z,10
2018-01-15T13:46:02.483Z,12
2018-01-15T13:56:02.867Z,8
2018-01-15T14:06:02.629Z,13
2018-01-15T14:16:02.813Z,12
2018-01-15T14:26:03.366Z,12
2018-01-15T14:36:02.630Z,10
2018-01-15T14:46:02.576Z,11
2018-01-15T14:56:03.876Z,11
2018-01-15T15:06:02.602Z,9
2018-01-15T15:16:02.519Z,10
2018-01-15T15:26:02.637Z,8
2018-01-15T15:36:02.601Z,10
2018-01-15T15:46:02.871Z,7
2018-01-15T15:56:02.660Z,8
2018-01-15T16:06:02.624Z,9
2018-01-15T16:16:02.712Z,6
2018-01-15T16:26:02.694Z,7
2018-01-15T16:36:02.714Z,7
2018-01-15T16:46:02.672Z,8
2018-01-15T16:56:02.736Z,6
2018-01-15T17:06:02.711Z,6
2018-01-15T17:16:03.363Z,5
2018-01-15T17:26:03.008Z,6
2018-01-15T17:36:02.724Z,5
2018-01-15T17:46:02.728Z,6
2018-01-15T17:56:02.727Z,5
2018-01-15T18:06:02.720Z,5
2018-01-15T18:16:02.752Z,6
2018-01-15T18:26:02.823Z,4
2018-01-15T18:36:02.781Z,3
2018-01-15T18:46:02.817Z,4
2018-01-15T18:56:02.741Z,3
2018-01-15T19:06:03.057Z,2
2018-01-15T19:16:02.976Z,3
2018-01-15T19:26:02.837Z,2
2018-01-15T19:36:03.052Z,2
2018-01-15T19:46:02.813Z,2
2018-01-15T19:56:03.762Z,1
2018-01-15T20:06:06.058Z,2
2018-01-15T20:16:02.889Z,1
2018-01-15T20:26:03.729Z,1
2018-01-15T20:36:02.975Z,1
2018-01-15T20:46:03.198Z,1
2018-01-15T20:56:02.919Z,1
2018-01-15T21:06:03.114Z,1
2018-01-15T21:16:02.862Z,1
2018-01-15T21:26:03.036Z,1
2018-01-15T21:36:03.506Z,1
2018-01-15T21:46:03.288Z,2
2018-01-15T21:56:02.903Z,2
2018-01-15T22:06:02.888Z,1
2018-01-15T22:16:02.949Z,4
2018-01-15T22:26:03.251Z,3
2018-01-15T22:36:02.983Z,3
2018-01-15T22:46:02.932Z,4
2018-01-15T22:56:03.044Z,6
2018-01-15T23:06:03.063Z,6
2018-01-15T23:16:03.049Z,7
2018-01-15T23:26:03.052Z,8
2018-01-15T23:36:03.028Z,10
2018-01-15T23:46:03.041Z,10
2018-01-15T23:56:03.021Z,10
